Byron, Oklahoma
Current Conditions -  °F | °C
As of 9:30 PM on Saturday 22 Nov 2014 (Local Time) from KAVK Reporting Station
Broken Clouds Broken Clouds  
Wind Chill: 52°   Ceiling: 3200
Heat Index: 52°   Visibility: 10mi
Dew Point: 52°   Wind: 13mph
Humidity: 100%   Direction: 170°S
Pressure: 29.66"   Gusts: NA
Location:  36.916°N, 98.4369°W
Report Text: KAVK 230330Z AUTO 17011KT 10SM SCT016 SCT023 BKN032 11/11 A2966 RMK AO2
Loading
Personal Weather Stations






























Interactive Weather Map New forecast layout! Learn more

10-Day Weather Forecast

Advertisements
Track Severe Weather on mobile